Time;durP1;ratioP1;P1;durP2;ratioP2;P2;SDS_P1;SDS_P2;PMS_P1;PMS_P2;Temp;Humidity;BMP_temperature;BMP_pressure;BME280_temperature;BME280_humidity;BME280_pressure;Samples;Min_cycle;Max_cycle;Signal;HPM_P1;HPM_P2
2022/11/25 00:01:31;;;;;;;1.80;1.70;;;;;;;5.17;83.31;99242.19;4303965;33;34060;-81
2022/11/25 00:04:00;;;;;;;4.20;3.65;;;;;;;5.31;82.94;99245.75;4302806;33;34165;-73
2022/11/25 00:06:33;;;;;;;1.37;1.35;;;;;;;5.25;83.24;99245.72;4303956;33;34436;-82
2022/11/25 00:09:10;;;;;;;2.53;2.30;;;;;;;5.53;82.19;99240.78;4302771;33;33525;-74
2022/11/25 00:11:40;;;;;;;0.90;0.90;;;;;;;5.21;82.66;99243.97;4302821;33;33856;-80
2022/11/25 00:14:13;;;;;;;1.92;1.83;;;;;;;5.45;80.60;99241.59;4303745;33;35057;-82
2022/11/25 00:16:41;;;;;;;2.03;1.92;;;;;;;5.56;80.46;99243.38;4290844;33;34454;-74
2022/11/25 00:19:16;;;;;;;1.10;1.10;;;;;;;5.16;81.40;99238.75;4303735;33;33666;-82
2022/11/25 00:21:44;;;;;;;6.28;2.97;;;;;;;5.24;80.71;99244.84;4304036;33;34747;-79
2022/11/25 00:24:14;;;;;;;4.57;2.17;;;;;;;5.29;80.94;99252.63;4290619;33;35187;-77
2022/11/25 00:26:42;;;;;;;1.40;1.30;;;;;;;5.48;79.66;99248.47;4302584;33;33707;-74
2022/11/25 00:29:11;;;;;;;0.93;0.93;;;;;;;5.34;80.20;99263.84;4303817;33;33437;-82
2022/11/25 00:31:40;;;;;;;1.08;0.98;;;;;;;5.02;81.44;99258.38;4303343;33;33464;-82
2022/11/25 00:34:12;;;;;;;5.15;4.75;;;;;;;5.27;80.25;99270.66;4303446;33;35126;-82
2022/11/25 00:36:40;;;;;;;1.85;1.75;;;;;;;5.34;80.54;99270.75;4290402;33;35805;-82
2022/11/25 00:39:16;;;;;;;2.08;1.95;;;;;;;4.90;82.45;99269.44;4302589;33;33568;-81
2022/11/25 00:44:34;;;;;;;2.30;2.20;;;;;;;5.13;80.88;99269.66;4303430;33;35267;-74
2022/11/25 00:47:17;;;;;;;1.40;1.30;;;;;;;5.27;80.53;99272.41;4305351;33;34437;-81
2022/11/25 00:49:50;;;;;;;1.50;1.40;;;;;;;4.96;82.33;99278.94;4304459;33;33577;-82
2022/11/25 00:52:23;;;;;;;3.50;2.80;;;;;;;5.00;82.62;99276.44;4292719;33;34263;-81
2022/11/25 00:54:51;;;;;;;0.88;0.88;;;;;;;4.89;83.31;99272.88;4305476;33;35111;-73
2022/11/25 00:57:21;;;;;;;3.65;2.70;;;;;;;5.03;82.32;99273.91;4305485;33;35158;-82
2022/11/25 00:59:49;;;;;;;0.98;0.98;;;;;;;5.31;80.62;99281.88;4292678;33;34237;-79
2022/11/25 01:02:20;;;;;;;6.20;2.33;;;;;;;4.99;81.70;99286.72;4305552;33;33866;-81
2022/11/25 01:04:49;;;;;;;7.32;1.15;;;;;;;4.70;83.20;99289.84;4292315;33;35130;-82
2022/11/25 01:07:17;;;;;;;3.37;3.15;;;;;;;4.64;82.53;99293.22;4305479;33;34554;-82
2022/11/25 01:09:46;;;;;;;2.67;2.42;;;;;;;5.18;82.06;99295.53;4305656;33;33443;-81
2022/11/25 01:12:14;;;;;;;7.75;3.33;;;;;;;5.12;81.60;99297.22;4305574;33;34467;-81
2022/11/25 01:14:42;;;;;;;0.60;0.60;;;;;;;4.85;82.94;99297.78;4305213;33;34855;-74
2022/11/25 01:17:13;;;;;;;2.25;1.55;;;;;;;5.00;82.87;99302.25;4305389;33;35081;-81
2022/11/25 01:19:41;;;;;;;0.85;0.85;;;;;;;5.20;81.58;99294.69;4292364;33;33977;-77
2022/11/25 01:22:09;;;;;;;2.15;2.05;;;;;;;4.92;83.58;99289.25;4305295;33;33976;-81
2022/11/25 01:24:37;;;;;;;0.80;0.80;;;;;;;5.22;81.68;99302.47;4305356;33;35615;-81
2022/11/25 01:27:05;;;;;;;1.65;1.55;;;;;;;5.14;81.79;99297.22;4305157;33;34341;-81
2022/11/25 01:29:33;;;;;;;1.98;1.87;;;;;;;4.85;82.08;99302.06;4305282;33;34431;-74
2022/11/25 01:32:01;;;;;;;1.73;1.20;;;;;;;5.11;81.27;99305.78;4305235;33;34737;-74
2022/11/25 01:34:31;;;;;;;0.98;0.98;;;;;;;4.72;81.80;99301.91;4292134;33;34498;-81
2022/11/25 01:36:59;;;;;;;9.73;2.90;;;;;;;4.79;82.21;99304.56;4304190;33;34399;-82
2022/11/25 01:39:27;;;;;;;1.98;1.87;;;;;;;4.92;81.04;99303.84;4305216;33;33453;-82
2022/11/25 01:42:00;;;;;;;3.83;1.60;;;;;;;4.86;79.69;99294.34;4305575;33;34580;-82
2022/11/25 01:44:31;;;;;;;1.92;1.83;;;;;;;4.78;79.85;99303.69;4304955;33;35104;-76
2022/11/25 01:47:07;;;;;;;3.08;1.35;;;;;;;4.66;80.66;99304.44;4305259;33;33605;-82
2022/11/25 01:50:04;;;;;;;5.53;2.92;;;;;;;4.36;81.50;99300.59;4305175;33;34231;-81
2022/11/25 01:52:35;;;;;;;2.50;2.15;;;;;;;4.55;81.27;99303.41;4290438;33;34073;-74
2022/11/25 01:55:10;;;;;;;2.45;2.30;;;;;;;4.46;81.62;99303.28;4303862;33;36002;-76
2022/11/25 01:57:43;;;;;;;1.85;1.25;;;;;;;4.53;82.22;99305.97;4304452;33;34493;-81
2022/11/25 02:00:12;;;;;;;2.65;1.95;;;;;;;4.31;81.87;99296.25;4304100;33;34231;-74
2022/11/25 02:02:44;;;;;;;1.75;1.65;;;;;;;4.24;81.96;99297.84;4304017;33;34757;-82
2022/11/25 02:05:15;;;;;;;0.65;0.65;;;;;;;4.66;81.00;99298.38;4291792;33;35908;-74
2022/11/25 02:07:46;;;;;;;2.60;2.45;;;;;;;4.34;81.99;99298.84;4304013;33;35256;-74
2022/11/25 02:10:21;;;;;;;1.00;1.00;;;;;;;4.33;81.96;99295.41;4303868;33;33555;-82
2022/11/25 02:12:50;;;;;;;2.10;1.95;;;;;;;4.09;82.70;99298.47;4292135;33;33761;-76
2022/11/25 02:15:19;;;;;;;1.33;1.30;;;;;;;4.54;80.51;99301.69;4303782;33;34933;-82
2022/11/25 02:17:48;;;;;;;1.33;1.23;;;;;;;4.12;81.79;99306.28;4303978;33;34345;-81
2022/11/25 02:20:20;;;;;;;0.68;0.68;;;;;;;4.04;81.75;99301.84;4305023;33;33711;-81
2022/11/25 02:23:32;;;;;;;1.40;1.35;;;;;;;4.34;82.72;99299.72;4305294;33;34737;-81
2022/11/25 02:26:00;;;;;;;2.30;1.80;;;;;;;4.25;84.74;99309.88;4305071;33;35143;-82
2022/11/25 02:28:30;;;;;;;1.85;1.75;;;;;;;4.65;84.46;99312.16;4304879;33;34561;-82
2022/11/25 02:30:58;;;;;;;0.73;0.73;;;;;;;4.13;86.54;99314.84;4304122;33;33582;-81
2022/11/25 02:33:26;;;;;;;1.12;1.12;;;;;;;4.56;85.84;99310.31;4304892;33;34729;-82
2022/11/25 02:35:57;;;;;;;1.37;1.23;;;;;;;4.35;86.38;99314.31;4303939;33;36091;-80
2022/11/25 02:38:42;;;;;;;1.33;1.30;;;;;;;4.47;86.72;99308.47;4305157;33;34587;-81
2022/11/25 02:41:16;;;;;;;1.52;1.37;;;;;;;4.29;87.30;99308.22;4303770;33;34247;-81
2022/11/25 02:43:46;;;;;;;1.02;0.93;;;;;;;4.36;86.79;99305.75;4304724;33;33928;-80
2022/11/25 02:46:16;;;;;;;3.00;2.80;;;;;;;4.32;87.36;99303.09;4304778;33;35244;-81
2022/11/25 02:48:50;;;;;;;2.78;2.67;;;;;;;4.47;86.47;99303.31;4292714;33;34427;-82
2022/11/25 02:51:38;;;;;;;1.45;1.37;;;;;;;4.61;85.56;99297.50;4303840;33;34133;-73
2022/11/25 02:54:08;;;;;;;1.00;1.00;;;;;;;4.60;85.72;99300.91;4291839;33;34002;-81
2022/11/25 02:56:36;;;;;;;5.20;2.67;;;;;;;4.42;86.31;99310.13;4303506;33;35049;-82
2022/11/25 02:59:04;;;;;;;2.67;1.17;;;;;;;4.36;86.05;99321.22;4304769;33;34397;-82
2022/11/25 03:01:34;;;;;;;1.35;1.25;;;;;;;4.70;85.37;99320.81;4304648;33;33471;-74
2022/11/25 03:04:04;;;;;;;4.07;3.33;;;;;;;4.35;86.04;99322.06;4292017;33;34726;-81
2022/11/25 03:06:33;;;;;;;2.30;2.15;;;;;;;4.55;85.07;99324.94;4304593;33;35154;-74
2022/11/25 03:09:02;;;;;;;4.28;1.15;;;;;;;4.86;83.60;99321.88;4290266;33;34595;-82
2022/11/25 03:14:21;;;;;;;0.85;0.85;;;;;;;4.85;83.21;99320.13;4297015;33;34736;-81
2022/11/25 03:16:49;;;;;;;1.17;1.17;;;;;;;4.43;85.21;99323.88;4304558;33;35611;-81
2022/11/25 03:19:17;;;;;;;0.68;0.68;;;;;;;4.71;84.35;99327.69;4291690;33;34426;-80
2022/11/25 03:21:45;;;;;;;1.70;1.60;;;;;;;4.89;83.12;99327.91;4304512;33;34247;-80
2022/11/25 03:24:13;;;;;;;1.87;1.80;;;;;;;4.51;84.11;99332.59;4304476;33;33943;-80
2022/11/25 03:26:41;;;;;;;2.92;2.75;;;;;;;4.64;83.81;99324.19;4304453;33;35028;-82
2022/11/25 03:29:09;;;;;;;1.77;1.55;;;;;;;4.68;84.41;99327.66;4304680;33;34469;-81
2022/11/25 03:31:37;;;;;;;0.60;0.60;;;;;;;4.82;84.21;99325.22;4304310;33;33302;-77
2022/11/25 03:34:08;;;;;;;2.55;2.35;;;;;;;4.59;84.46;99331.00;4304492;33;34014;-81
2022/11/25 03:36:36;;;;;;;1.73;1.62;;;;;;;4.70;84.72;99339.72;4304520;33;36034;-81
2022/11/25 03:39:05;;;;;;;2.80;2.25;;;;;;;4.79;84.11;99344.13;4304215;33;35226;-80
2022/11/25 03:41:33;;;;;;;1.20;1.20;;;;;;;4.87;82.99;99347.69;4304538;33;34242;-81
2022/11/25 03:44:01;;;;;;;2.15;1.98;;;;;;;4.59;85.20;99341.31;4304405;33;33862;-81
2022/11/25 03:46:29;;;;;;;3.17;2.90;;;;;;;4.68;84.95;99338.84;4304124;33;35906;-81
2022/11/25 03:48:58;;;;;;;2.87;2.67;;;;;;;4.92;83.59;99339.97;4304231;33;34654;-81
2022/11/25 03:51:27;;;;;;;0.62;0.62;;;;;;;4.91;82.68;99340.84;4304444;33;33465;-82
2022/11/25 03:53:55;;;;;;;0.90;0.90;;;;;;;4.74;83.42;99343.22;4303921;33;34037;-82
2022/11/25 03:56:23;;;;;;;1.35;1.25;;;;;;;4.72;83.63;99343.19;4304221;33;35090;-73
2022/11/25 03:58:52;;;;;;;0.90;0.75;;;;;;;4.86;82.93;99350.25;4303951;33;35226;-81
2022/11/25 04:01:21;;;;;;;3.85;2.30;;;;;;;5.00;82.84;99353.00;4304270;33;34338;-81
2022/11/25 04:03:50;;;;;;;2.12;2.00;;;;;;;4.87;82.80;99351.94;4304231;33;33932;-81
2022/11/25 04:06:20;;;;;;;4.40;4.10;;;;;;;4.86;83.14;99352.81;4303972;33;35085;-82
2022/11/25 04:08:49;;;;;;;0.80;0.80;;;;;;;4.73;83.28;99356.97;4304263;33;33744;-81
2022/11/25 04:11:17;;;;;;;6.32;4.72;;;;;;;4.78;82.26;99364.75;4303085;33;33430;-81
2022/11/25 04:13:47;;;;;;;1.87;1.70;;;;;;;4.63;82.87;99362.84;4304055;33;34686;-82
2022/11/25 04:16:25;;;;;;;0.95;0.95;;;;;;;4.45;82.73;99371.19;4303940;33;35095;-80
2022/11/25 04:18:53;;;;;;;1.75;1.55;;;;;;;4.61;82.61;99373.12;4304030;33;35102;-81
2022/11/25 04:21:21;;;;;;;0.80;0.80;;;;;;;4.39;82.29;99368.50;4304884;33;33701;-81
2022/11/25 04:23:49;;;;;;;1.70;1.60;;;;;;;4.72;80.67;99368.13;4305653;33;33990;-81
2022/11/25 04:26:17;;;;;;;2.08;1.98;;;;;;;4.79;79.88;99375.09;4306019;33;34783;-81
2022/11/25 04:28:45;;;;;;;1.00;1.00;;;;;;;5.03;78.72;99374.53;4305733;33;34412;-81
2022/11/25 04:31:13;;;;;;;3.28;3.08;;;;;;;4.66;79.60;99389.53;4305508;33;33302;-78
2022/11/25 04:33:41;;;;;;;1.33;1.30;;;;;;;4.56;79.68;99398.84;4305569;33;33943;-81
2022/11/25 04:36:15;;;;;;;2.10;1.98;;;;;;;3.92;81.90;99403.88;4305809;33;35124;-82
2022/11/25 04:38:43;;;;;;;2.75;2.03;;;;;;;4.12;81.05;99405.91;4305567;33;34542;-76
2022/11/25 04:41:11;;;;;;;0.98;0.98;;;;;;;4.02;81.33;99409.16;4305681;33;33475;-81
2022/11/25 04:43:39;;;;;;;1.87;1.77;;;;;;;4.61;79.08;99414.41;4305664;33;33874;-82
2022/11/25 04:46:13;;;;;;;5.10;4.70;;;;;;;4.51;78.84;99420.25;4305740;33;35172;-80
2022/11/25 04:48:42;;;;;;;1.35;1.27;;;;;;;3.95;79.65;99421.06;4304463;33;35126;-81
2022/11/25 04:51:11;;;;;;;3.28;2.70;;;;;;;3.29;81.64;99425.03;4305758;33;33649;-81
2022/11/25 04:53:39;;;;;;;2.33;1.77;;;;;;;3.72;80.53;99438.69;4305755;33;33652;-81
2022/11/25 04:56:08;;;;;;;2.05;1.85;;;;;;;3.64;80.13;99441.16;4304273;33;35992;-81
2022/11/25 05:01:24;;;;;;;1.58;1.52;;;;;;;3.33;80.62;99439.69;4305568;33;33478;-73
2022/11/25 05:03:53;;;;;;;0.60;0.60;;;;;;;3.17;80.96;99452.22;4305457;33;33664;-76
2022/11/25 05:06:25;;;;;;;12.32;8.40;;;;;;;3.30;79.98;99447.31;4305700;33;35859;-72
2022/11/25 05:08:53;;;;;;;4.93;3.83;;;;;;;3.27;79.90;99452.44;4305728;33;34265;-78
2022/11/25 05:11:22;;;;;;;6.82;4.10;;;;;;;3.08;80.65;99457.19;4305551;33;33586;-81
2022/11/25 05:13:50;;;;;;;1.00;1.00;;;;;;;3.81;76.22;99462.03;4305622;33;33835;-80
2022/11/25 05:16:19;;;;;;;1.77;1.67;;;;;;;3.33;78.03;99457.69;4305411;33;34998;-81
2022/11/25 05:18:47;;;;;;;7.20;5.18;;;;;;;3.15;78.92;99458.19;4305305;33;34540;-81
2022/11/25 05:21:16;;;;;;;1.25;1.12;;;;;;;3.12;78.94;99469.25;4305618;33;34238;-80
2022/11/25 05:23:44;;;;;;;3.80;2.25;;;;;;;3.09;78.54;99464.06;4305522;33;34626;-79
2022/11/25 05:26:13;;;;;;;5.25;4.82;;;;;;;2.98;79.19;99475.81;4305448;33;35124;-78
2022/11/25 05:28:41;;;;;;;2.37;2.25;;;;;;;2.96;79.87;99474.94;4305287;33;34429;-81
2022/11/25 05:31:09;;;;;;;3.12;2.30;;;;;;;2.85;79.98;99478.13;4305290;33;34289;-80
2022/11/25 05:33:38;;;;;;;5.25;3.85;;;;;;;3.40;77.19;99485.28;4304704;33;34004;-81
2022/11/25 05:36:06;;;;;;;0.77;0.77;;;;;;;3.37;74.58;99490.37;4305343;33;35861;-80
2022/11/25 05:38:34;;;;;;;2.05;1.08;;;;;;;2.57;78.75;99498.91;4305015;33;34519;-81
2022/11/25 05:41:05;;;;;;;1.62;1.55;;;;;;;2.97;77.06;99494.69;4305532;33;34277;-80
2022/11/25 05:43:34;;;;;;;1.55;1.45;;;;;;;2.61;78.43;99490.41;4292519;33;33157;-77
2022/11/25 05:46:06;;;;;;;1.10;1.10;;;;;;;3.36;74.81;99493.78;4305159;33;35163;-80
2022/11/25 05:48:34;;;;;;;1.35;1.35;;;;;;;2.37;78.41;99501.84;4292477;33;34563;-84
2022/11/25 05:51:03;;;;;;;2.55;2.35;;;;;;;1.88;81.93;99504.00;4306838;33;33517;-76
2022/11/25 05:53:32;;;;;;;0.98;0.98;;;;;;;2.28;80.76;99506.78;4292302;33;33882;-74
2022/11/25 05:56:03;;;;;;;1.00;1.00;;;;;;;2.25;80.61;99509.25;4305100;33;35133;-80
2022/11/25 05:58:32;;;;;;;1.20;1.12;;;;;;;2.45;79.43;99505.50;4304323;33;34360;-71
2022/11/25 06:01:05;;;;;;;1.42;1.33;;;;;;;2.85;78.13;99511.56;4305337;33;33452;-73
2022/11/25 06:03:36;;;;;;;0.70;0.70;;;;;;;2.32;79.95;99502.56;4303893;33;34799;-72
2022/11/25 06:06:05;;;;;;;1.27;1.27;;;;;;;2.09;80.12;99520.84;4305127;33;37173;-72
2022/11/25 06:08:34;;;;;;;0.80;0.80;;;;;;;2.08;80.05;99508.81;4303990;33;34505;-74
2022/11/25 06:11:10;;;;;;;2.42;1.70;;;;;;;2.22;80.30;99515.19;4305029;33;33515;-77
2022/11/25 06:13:39;;;;;;;2.20;2.00;;;;;;;2.64;78.51;99518.78;4304233;33;33892;-80
2022/11/25 06:16:12;;;;;;;4.47;3.12;;;;;;;2.50;78.61;99518.44;4304815;33;35145;-79
2022/11/25 06:18:41;;;;;;;1.87;1.77;;;;;;;2.28;81.09;99517.03;4305051;33;34436;-72
2022/11/25 06:21:12;;;;;;;1.05;1.05;;;;;;;2.37;79.96;99522.41;4305246;33;34284;-76
2022/11/25 06:23:40;;;;;;;1.00;1.00;;;;;;;2.75;78.55;99530.16;4291990;33;34589;-72
2022/11/25 06:26:19;;;;;;;5.25;2.15;;;;;;;2.32;79.93;99531.69;4305127;33;35148;-72
2022/11/25 06:28:47;;;;;;;2.67;1.37;;;;;;;2.19;80.52;99543.37;4292135;33;35195;-78
2022/11/25 06:31:18;;;;;;;1.95;1.85;;;;;;;2.24;80.47;99543.47;4303858;33;33741;-72
2022/11/25 06:33:49;;;;;;;4.47;3.42;;;;;;;2.46;80.14;99547.47;4305260;33;33928;-74
2022/11/25 06:36:18;;;;;;;1.60;1.50;;;;;;;2.76;79.75;99547.34;4303840;33;36261;-72
2022/11/25 06:38:49;;;;;;;4.32;2.85;;;;;;;2.44;81.37;99554.28;4301764;33;34472;-82
2022/11/25 06:41:18;;;;;;;3.15;2.95;;;;;;;2.63;83.16;99550.47;4293401;33;32743;-84
2022/11/25 06:43:46;;;;;;;1.33;1.23;;;;;;;2.82;83.99;99555.22;4303465;33;33717;-75
2022/11/25 06:46:16;;;;;;;2.67;1.55;;;;;;;3.26;85.70;99553.63;4304899;33;35142;-78
2022/11/25 06:48:54;;;;;;;1.33;1.33;;;;;;;3.95;86.42;99550.78;4317513;33;34504;-72
2022/11/25 06:51:23;;;;;;;0.77;0.77;;;;;;;4.95;85.78;99551.63;4319178;33;33542;-80
2022/11/25 06:53:51;;;;;;;2.10;2.00;;;;;;;5.95;82.52;99563.28;4319196;33;33935;-71
2022/11/25 06:56:25;;;;;;;1.30;1.25;;;;;;;7.24;77.94;99550.66;4319121;33;35920;-81
2022/11/25 06:58:53;;;;;;;2.15;2.05;;;;;;;7.37;72.09;99555.03;4317064;33;34528;-81
2022/11/25 07:01:24;;;;;;;0.90;0.90;;;;;;;7.76;69.96;99550.91;4318059;33;33361;-79
2022/11/25 07:03:54;;;;;;;1.80;1.62;;;;;;;8.54;68.00;99557.16;4319255;33;33171;-82
2022/11/25 07:06:23;;;;;;;1.90;1.75;;;;;;;7.39;67.87;99557.63;4306167;33;35992;-71
2022/11/25 07:08:51;;;;;;;1.42;1.25;;;;;;;7.35;66.79;99561.94;4306062;33;34522;-79
2022/11/25 07:11:19;;;;;;;1.80;1.70;;;;;;;7.67;65.62;99570.72;4318128;33;33403;-73
2022/11/25 07:13:51;;;;;;;1.95;1.85;;;;;;;8.34;65.35;99570.09;4317540;33;33781;-72
2022/11/25 07:16:19;;;;;;;3.35;3.15;;;;;;;8.42;63.78;99571.00;4317736;33;35964;-79
2022/11/25 07:18:47;;;;;;;4.57;3.30;;;;;;;7.67;65.50;99581.09;4317469;33;34044;-72
2022/11/25 07:21:17;;;;;;;1.58;1.48;;;;;;;7.54;68.03;99581.03;4317460;33;34253;-73
2022/11/25 07:23:46;;;;;;;1.30;1.20;;;;;;;7.07;71.03;99589.37;4317513;33;33114;-79
2022/11/25 07:26:25;;;;;;;5.53;2.95;;;;;;;6.97;71.53;99585.84;4305205;33;35720;-79
2022/11/25 07:28:57;;;;;;;0.98;0.98;;;;;;;6.15;75.95;99584.22;4318924;33;34611;-80
2022/11/25 07:31:33;;;;;;;2.45;2.22;;;;;;;6.23;75.79;99587.75;4317858;33;33476;-74
2022/11/25 07:34:05;;;;;;;4.37;4.07;;;;;;;6.37;75.04;99579.25;4304373;33;33860;-79
2022/11/25 07:36:33;;;;;;;5.62;3.87;;;;;;;7.10;74.25;99578.19;4304311;33;35128;-80
2022/11/25 07:39:05;;;;;;;4.40;4.00;;;;;;;7.61;71.98;99576.75;4304288;33;34593;-80
2022/11/25 07:41:33;;;;;;;2.37;1.95;;;;;;;6.35;75.46;99580.97;4304366;33;33541;-80
2022/11/25 07:44:03;;;;;;;1.48;1.00;;;;;;;7.79;72.50;99582.03;4304477;33;34023;-80
2022/11/25 07:46:37;;;;;;;3.50;1.98;;;;;;;7.66;71.74;99585.44;4304459;33;34952;-80
2022/11/25 07:49:08;;;;;;;1.52;1.40;;;;;;;7.46;73.05;99587.03;4304471;33;33724;-80
2022/11/25 07:51:49;;;;;;;1.58;1.52;;;;;;;7.17;73.17;99590.31;4291151;33;33569;-73
2022/11/25 07:54:17;;;;;;;5.03;4.40;;;;;;;7.65;72.51;99582.81;4304238;33;34053;-73
2022/11/25 07:56:47;;;;;;;2.10;1.98;;;;;;;7.75;72.23;99594.97;4305325;33;35306;-77
2022/11/25 07:59:17;;;;;;;3.12;2.30;;;;;;;7.86;71.40;99587.25;4305954;33;34572;-80
2022/11/25 08:01:48;;;;;;;1.58;1.45;;;;;;;8.30;69.50;99586.53;4305894;33;33447;-74
2022/11/25 08:04:17;;;;;;;1.35;1.27;;;;;;;7.16;74.09;99591.16;4293014;33;34362;-76
2022/11/25 08:06:50;;;;;;;1.08;1.08;;;;;;;7.44;74.40;99593.94;4305862;33;35914;-73
2022/11/25 08:09:21;;;;;;;1.55;1.40;;;;;;;7.63;72.96;99593.19;4304724;33;34462;-79
2022/11/25 08:11:50;;;;;;;1.12;1.08;;;;;;;7.27;73.66;99597.31;4304696;33;34326;-79
2022/11/25 08:14:18;;;;;;;1.85;1.75;;;;;;;6.99;75.16;99594.50;4305822;33;34689;-79
2022/11/25 08:16:46;;;;;;;3.22;2.92;;;;;;;7.03;75.97;99596.25;4305629;33;35024;-73
2022/11/25 08:19:16;;;;;;;2.67;2.47;;;;;;;7.35;74.25;99593.00;4305707;33;34515;-80
2022/11/25 08:21:46;;;;;;;1.73;1.62;;;;;;;7.19;76.02;99599.81;4305737;33;34385;-79
2022/11/25 08:24:19;;;;;;;2.53;2.33;;;;;;;7.83;73.13;99605.37;4305760;33;33029;-79
2022/11/25 08:26:48;;;;;;;3.40;2.80;;;;;;;7.53;75.17;99614.72;4305630;33;35107;-79
2022/11/25 08:29:18;;;;;;;3.12;2.55;;;;;;;7.98;73.05;99614.09;4299621;33;202196;-78
2022/11/25 08:31:46;;;;;;;0.62;0.62;;;;;;;7.79;74.95;99613.13;4306779;33;33481;-79
2022/11/25 08:34:24;;;;;;;2.47;2.28;;;;;;;7.97;73.66;99611.47;4320153;33;34860;-80
2022/11/25 08:36:52;;;;;;;2.42;2.25;;;;;;;8.55;72.00;99613.41;4320464;33;35040;-80
2022/11/25 08:39:21;;;;;;;2.35;2.15;;;;;;;9.45;69.09;99611.69;4320056;33;34502;-80
2022/11/25 08:42:09;;;;;;;2.78;2.55;;;;;;;10.13;67.09;99616.66;4306029;33;34390;-82
2022/11/25 08:44:38;;;;;;;1.35;1.25;;;;;;;11.64;60.69;99605.13;4305469;33;34689;-80
2022/11/25 08:47:06;;;;;;;1.70;1.60;;;;;;;12.47;60.01;99610.22;4305108;33;35971;-72
2022/11/25 08:49:33;;;;;;;4.50;2.70;;;;;;;12.93;56.71;99607.81;4304473;33;35239;-82
2022/11/25 08:52:09;;;;;;;3.58;1.92;;;;;;;13.31;55.24;99617.66;4304291;33;33445;-81
2022/11/25 08:54:37;;;;;;;2.78;2.58;;;;;;;13.50;53.98;99615.59;4302778;33;34716;-81
2022/11/25 08:57:05;;;;;;;4.40;2.45;;;;;;;12.23;57.41;99611.44;4305333;33;35866;-77
2022/11/25 08:59:33;;;;;;;3.47;2.35;;;;;;;11.99;58.85;99611.75;4305466;33;34650;-82
2022/11/25 09:02:02;;;;;;;4.97;2.75;;;;;;;13.09;56.12;99609.28;4305485;33;33723;-75
2022/11/25 09:04:30;;;;;;;4.55;4.10;;;;;;;12.27;57.37;99607.88;4304267;33;33816;-81
2022/11/25 09:06:59;;;;;;;18.58;4.95;;;;;;;12.32;57.38;99619.13;4305279;33;35048;-82
2022/11/25 09:09:27;;;;;;;8.30;3.70;;;;;;;13.17;55.79;99617.00;4305237;33;34463;-72
2022/11/25 09:11:55;;;;;;;2.33;2.15;;;;;;;13.53;56.00;99606.81;4305406;33;33397;-81
2022/11/25 09:14:24;;;;;;;0.82;0.82;;;;;;;12.58;58.01;99622.25;4305438;33;34809;-81
2022/11/25 09:16:52;;;;;;;2.55;2.35;;;;;;;12.55;57.35;99617.97;4305240;33;35080;-80
2022/11/25 09:19:20;;;;;;;2.00;1.70;;;;;;;11.88;59.68;99619.66;4305300;33;34469;-81
2022/11/25 09:21:48;;;;;;;1.65;1.55;;;;;;;12.32;59.09;99611.31;4304427;33;34295;-79
2022/11/25 09:24:16;;;;;;;3.37;3.00;;;;;;;12.29;58.94;99615.69;4305032;33;33997;-75
2022/11/25 09:26:45;;;;;;;2.40;2.20;;;;;;;13.60;54.66;99622.34;4305129;33;35118;-72
2022/11/25 09:29:13;;;;;;;4.80;3.08;;;;;;;13.82;53.89;99616.72;4304547;33;34527;-74
2022/11/25 09:31:41;;;;;;;1.62;1.52;;;;;;;14.11;52.07;99612.66;4304941;33;33523;-81
2022/11/25 09:34:09;;;;;;;2.33;1.95;;;;;;;14.35;52.07;99616.50;4304871;33;34738;-81
2022/11/25 09:36:38;;;;;;;2.08;1.23;;;;;;;14.69;51.72;99615.78;4304994;33;35149;-72
2022/11/25 09:39:06;;;;;;;1.80;1.70;;;;;;;14.95;50.07;99613.41;4305186;33;35162;-82
2022/11/25 09:48:10;;;;;;;1.77;1.67;;;;;;;16.26;47.84;99607.28;4294129;33;35143;-81
2022/11/25 09:50:42;;;;;;;2.45;2.25;;;;;;;16.79;46.84;99609.16;4303994;33;34232;-75
2022/11/25 09:53:40;;;;;;;3.40;2.25;;;;;;;17.83;44.27;99610.97;4304127;33;34497;-80
2022/11/25 09:56:55;;;;;;;2.58;2.33;;;;;;;18.56;42.17;99602.06;4305136;33;34066;-83
2022/11/25 09:59:36;;;;;;;1.50;1.40;;;;;;;18.60;41.47;99608.09;4303650;33;35936;-82
2022/11/25 10:02:39;;;;;;;3.62;3.33;;;;;;;20.10;38.93;99611.50;4305090;33;34607;-82
2022/11/25 10:05:20;;;;;;;2.37;2.17;;;;;;;20.39;38.25;99612.75;4296691;33;34199;-81
2022/11/25 10:07:58;;;;;;;1.77;1.67;;;;;;;19.82;39.45;99612.72;4303961;33;33775;-81
2022/11/25 10:10:32;;;;;;;4.87;3.47;;;;;;;19.72;39.84;99606.09;4299873;33;35185;-73
2022/11/25 10:13:00;;;;;;;2.65;2.10;;;;;;;19.54;41.19;99614.84;4303942;33;34450;-77
2022/11/25 10:15:32;;;;;;;5.03;3.53;;;;;;;20.07;39.67;99601.03;4303794;33;31927;-76
2022/11/25 10:18:05;;;;;;;6.87;3.45;;;;;;;21.20;37.00;99605.34;4304545;33;34785;-79
2022/11/25 10:20:39;;;;;;;13.45;5.95;;;;;;;19.47;40.04;99606.31;4292047;33;35109;-82
2022/11/25 10:23:31;;;;;;;4.32;3.58;;;;;;;21.19;37.09;99602.78;4303893;33;33499;-74
2022/11/25 10:26:11;;;;;;;4.00;3.55;;;;;;;21.44;36.57;99606.81;4291965;33;33475;-82
2022/11/25 10:28:46;;;;;;;2.75;2.03;;;;;;;21.12;36.64;99607.50;4291977;33;33893;-73
2022/11/25 10:31:26;;;;;;;2.30;1.85;;;;;;;20.82;37.71;99602.81;4304919;33;36042;-83
2022/11/25 10:33:58;;;;;;;2.85;2.45;;;;;;;19.76;39.65;99602.41;4303613;33;35202;-82
2022/11/25 10:36:32;;;;;;;2.03;1.70;;;;;;;21.18;35.95;99599.28;4291922;33;33358;-80
2022/11/25 10:39:10;;;;;;;6.43;2.78;;;;;;;20.24;39.09;99602.91;4303929;33;34641;-80
2022/11/25 10:41:54;;;;;;;9.07;2.42;;;;;;;20.73;37.90;99600.59;4303698;33;35891;-75
2022/11/25 10:44:28;;;;;;;3.03;2.78;;;;;;;21.40;35.74;99601.66;4291685;33;34657;-78
2022/11/25 10:47:03;;;;;;;3.00;2.30;;;;;;;21.38;36.79;99606.19;4291939;33;34210;-76
2022/11/25 10:50:13;;;;;;;3.20;2.42;;;;;;;21.75;35.12;99612.28;4303822;33;32325;-80
2022/11/25 10:53:06;;;;;;;4.82;3.40;;;;;;;21.47;36.41;99615.50;4304799;33;35088;-82
2022/11/25 10:55:34;;;;;;;2.17;2.00;;;;;;;21.51;35.41;99621.50;4299646;33;34630;-79
2022/11/25 10:58:41;;;;;;;2.37;2.17;;;;;;;20.22;38.48;99621.50;4304681;33;33574;-79
2022/11/25 11:01:20;;;;;;;8.77;2.58;;;;;;;21.21;36.67;99622.09;4273639;33;34023;-80
2022/11/25 11:04:03;;;;;;;1.62;1.52;;;;;;;21.86;35.69;99621.47;4273748;33;36012;-79
2022/11/25 11:06:37;;;;;;;3.15;2.53;;;;;;;20.44;38.39;99625.78;4293722;33;35207;-79
2022/11/25 11:09:05;;;;;;;3.08;2.83;;;;;;;18.21;43.52;99627.16;4303589;33;34355;-79
2022/11/25 11:11:46;;;;;;;1.70;1.45;;;;;;;19.79;39.55;99623.41;4291648;33;33849;-80
2022/11/25 11:14:18;;;;;;;2.47;1.87;;;;;;;19.32;39.40;99623.66;4303560;33;34939;-79
2022/11/25 11:16:54;;;;;;;5.93;2.33;;;;;;;18.17;41.88;99626.41;4304699;33;34545;-79
2022/11/25 11:19:25;;;;;;;4.00;2.78;;;;;;;15.86;47.64;99633.84;4298863;33;33399;-78
2022/11/25 11:21:55;;;;;;;2.47;2.28;;;;;;;16.07;47.47;99633.22;4303502;33;33926;-79
2022/11/25 11:24:31;;;;;;;2.03;1.83;;;;;;;15.69;50.48;99629.88;4303694;33;35301;-79
2022/11/25 11:27:17;;;;;;;6.63;3.67;;;;;;;15.94;48.79;99626.63;4304814;33;35202;-78
2022/11/25 11:29:45;;;;;;;;;;;;;;;15.52;49.31;99626.84;4303737;33;34313;-78
2022/11/25 11:32:22;;;;;;;2.90;2.40;;;;;;;16.71;48.34;99619.06;4304229;33;35034;-79
2022/11/25 11:35:06;;;;;;;2.30;2.10;;;;;;;17.06;46.87;99617.09;4291362;33;36073;-74
2022/11/25 11:37:43;;;;;;;1.92;1.83;;;;;;;16.09;47.59;99620.06;4304285;33;34493;-79
2022/11/25 11:40:38;;;;;;;2.10;1.90;;;;;;;16.15;47.99;99611.13;4303256;33;33723;-78
2022/11/25 11:43:12;;;;;;;6.60;4.62;;;;;;;13.73;54.49;99623.00;4303469;33;33958;-79
2022/11/25 11:45:55;;;;;;;3.50;3.20;;;;;;;13.78;55.07;99631.62;4304278;33;35165;-78
2022/11/25 11:49:01;;;;;;;3.83;2.97;;;;;;;13.56;56.58;99631.16;4303077;33;34513;-77
2022/11/25 11:51:55;;;;;;;2.03;1.85;;;;;;;12.95;58.79;99616.47;4280677;33;33455;-78
2022/11/25 11:54:36;;;;;;;1.05;1.05;;;;;;;13.54;57.68;99626.84;4304118;33;34862;-79
2022/11/25 11:57:17;;;;;;;2.15;1.85;;;;;;;13.84;56.20;99620.19;4302939;33;35053;-78
2022/11/25 11:59:53;;;;;;;2.00;1.90;;;;;;;13.93;56.39;99619.13;4304134;33;34327;-79
2022/11/25 12:02:34;;;;;;;4.20;3.90;;;;;;;13.86;55.52;99612.28;4302963;33;33485;-79
2022/11/25 12:05:09;;;;;;;1.30;1.30;;;;;;;15.10;51.63;99606.06;4303960;33;33799;-79
2022/11/25 12:07:40;;;;;;;1.50;1.40;;;;;;;14.72;51.56;99613.09;4304012;33;35199;-79
2022/11/25 12:10:21;;;;;;;2.65;2.42;;;;;;;15.30;52.94;99603.78;4303945;33;35263;-79
2022/11/25 12:13:12;;;;;;;3.90;2.55;;;;;;;14.59;55.81;99615.13;4303872;33;33555;-78
2022/11/25 12:15:51;;;;;;;1.45;1.35;;;;;;;15.53;51.98;99605.81;4303956;33;34011;-73
2022/11/25 12:18:38;;;;;;;2.53;2.33;;;;;;;15.08;53.51;99613.94;4302593;33;35766;-78